createdAt,value
2022-08-18T00:04:59.701Z,16.37
2022-08-18T00:10:02.016Z,16.57
2022-08-18T00:15:06.364Z,16.40
2022-08-18T00:20:14.842Z,17.83
2022-08-18T00:25:18.264Z,18.00
2022-08-18T00:30:20.491Z,18.23
2022-08-18T00:35:30.630Z,16.80
2022-08-18T00:40:39.145Z,16.50
2022-08-18T00:45:42.754Z,15.13
2022-08-18T00:50:56.545Z,17.20
2022-08-18T00:56:02.724Z,17.20
2022-08-18T01:01:05.910Z,16.55
2022-08-18T01:06:15.856Z,18.02
2022-08-18T01:11:16.679Z,18.17
2022-08-18T01:16:36.873Z,16.80
2022-08-18T01:21:50.821Z,20.98
2022-08-18T01:26:51.724Z,19.08
2022-08-18T01:31:55.697Z,18.20
2022-08-18T01:36:57.733Z,15.50
2022-08-18T01:41:58.605Z,17.00
2022-08-18T01:46:59.488Z,13.45
2022-08-18T01:52:00.365Z,14.48
2022-08-18T01:57:01.645Z,11.57
2022-08-18T02:02:03.097Z,11.00
2022-08-18T02:07:09.155Z,12.50
2022-08-18T02:12:10.979Z,13.45
2022-08-18T02:17:13.139Z,13.35
2022-08-18T02:22:18.735Z,12.73
2022-08-18T02:27:19.543Z,14.73
2022-08-18T02:32:20.398Z,16.05
2022-08-18T02:37:22.373Z,17.92
2022-08-18T02:42:23.196Z,15.32
2022-08-18T02:47:24.591Z,14.60
2022-08-18T02:52:31.939Z,17.55
2022-08-18T02:57:33.217Z,15.38
2022-08-18T03:02:34.105Z,21.67
2022-08-18T03:07:35.710Z,17.83
2022-08-18T03:12:42.552Z,18.55
2022-08-18T03:17:43.421Z,22.73
2022-08-18T03:22:44.401Z,23.85
2022-08-18T03:27:45.327Z,24.67
2022-08-18T03:32:46.733Z,23.65
2022-08-18T03:37:47.689Z,25.17
2022-08-18T03:42:48.987Z,23.25
2022-08-18T03:47:53.522Z,25.27
2022-08-18T03:52:58.631Z,23.60
2022-08-18T03:58:03.833Z,21.05
2022-08-18T04:03:05.220Z,21.23
2022-08-18T04:08:06.589Z,24.50
2022-08-18T04:13:07.427Z,21.73
2022-08-18T04:18:08.836Z,23.90
2022-08-18T04:23:09.848Z,21.30
2022-08-18T04:28:11.009Z,21.05
2022-08-18T04:33:11.839Z,24.58
2022-08-18T04:38:13.300Z,20.27
2022-08-18T04:43:14.591Z,21.12
2022-08-18T04:48:15.816Z,22.00
2022-08-18T04:53:35.480Z,22.95
2022-08-18T04:58:37.153Z,19.85
2022-08-18T05:03:38.011Z,19.85
2022-08-18T05:13:57.314Z,21.67
2022-08-18T05:18:58.986Z,19.67
2022-08-18T05:24:00.250Z,19.70
2022-08-18T05:29:17.914Z,15.98
2022-08-18T05:34:21.116Z,17.92
2022-08-18T05:44:28.556Z,18.53
2022-08-18T05:49:30.705Z,23.62
2022-08-18T05:55:07.238Z,24.20
2022-08-18T06:00:11.823Z,17.83
2022-08-18T06:05:26.827Z,18.42
2022-08-18T06:10:28.143Z,18.62
2022-08-18T06:17:00.249Z,17.92
2022-08-18T06:24:56.206Z,22.85
2022-08-18T06:30:18.473Z,24.52
2022-08-18T06:35:59.834Z,26.80
2022-08-18T06:42:04.787Z,25.12
2022-08-18T06:49:03.622Z,22.83
2022-08-18T06:54:07.819Z,18.45
2022-08-18T06:59:33.153Z,21.77
2022-08-18T07:05:04.794Z,22.10
2022-08-18T07:10:52.781Z,19.58
2022-08-18T07:16:15.960Z,20.42
2022-08-18T07:21:28.129Z,19.83
2022-08-18T07:26:29.075Z,18.65
2022-08-18T07:31:53.242Z,20.67
2022-08-18T07:37:40.115Z,19.90
2022-08-18T07:43:00.476Z,22.62
2022-08-18T07:54:47.178Z,23.58
2022-08-18T08:11:58.669Z,21.35
2022-08-18T08:20:02.583Z,21.75
2022-08-18T08:26:41.590Z,17.80
2022-08-18T08:35:49.068Z,19.52
2022-08-18T08:41:02.787Z,20.55
2022-08-18T08:46:11.942Z,30.27
2022-08-18T08:51:48.382Z,26.25
2022-08-18T08:56:54.549Z,24.35
2022-08-18T09:03:52.426Z,24.73
2022-08-18T09:09:51.435Z,22.80
2022-08-18T09:16:49.870Z,26.83
2022-08-18T09:22:19.513Z,26.33
2022-08-18T09:28:07.164Z,22.37
2022-08-18T09:33:30.644Z,28.15
2022-08-18T09:38:56.675Z,26.92
2022-08-18T09:44:11.929Z,26.05
2022-08-18T09:55:52.082Z,27.13
2022-08-18T13:09:53.923Z,17.70
2022-08-18T13:14:55.571Z,17.05
2022-08-18T13:19:56.425Z,16.00
2022-08-18T13:24:58.834Z,15.52
2022-08-18T13:30:29.804Z,18.27
2022-08-18T13:35:35.515Z,17.83
2022-08-18T13:40:53.109Z,20.25
2022-08-18T13:45:56.021Z,21.40
2022-08-18T13:50:58.923Z,20.30
2022-08-18T13:56:02.636Z,22.55
2022-08-18T14:06:38.649Z,21.65
2022-08-18T14:11:51.249Z,21.08
2022-08-18T14:16:52.358Z,19.58
2022-08-18T14:22:12.664Z,18.25
2022-08-18T14:27:14.505Z,19.20
2022-08-18T14:32:22.007Z,19.48
2022-08-18T14:37:32.122Z,21.25
2022-08-18T14:42:41.824Z,23.67
2022-08-18T14:47:56.069Z,22.02
2022-08-18T14:52:59.111Z,22.67
2022-08-18T14:58:00.512Z,22.27
2022-08-18T15:03:01.466Z,24.63
2022-08-18T15:08:03.597Z,23.20
2022-08-18T15:18:07.325Z,23.70
2022-08-18T15:23:30.157Z,25.73
2022-08-18T15:28:31.967Z,23.23
2022-08-18T15:33:36.085Z,24.63
2022-08-18T15:38:37.628Z,24.65
2022-08-18T15:43:46.024Z,23.23
2022-08-18T15:48:47.522Z,23.60
2022-08-18T15:53:49.082Z,22.80
2022-08-18T15:58:51.057Z,16.07
2022-08-18T16:03:54.564Z,14.40
2022-08-18T16:08:55.660Z,15.05
2022-08-18T16:14:01.039Z,16.55
2022-08-18T16:19:09.196Z,17.75
2022-08-18T16:24:10.231Z,18.98
2022-08-18T16:29:11.105Z,18.77
2022-08-18T16:34:11.900Z,18.92
2022-08-18T16:39:12.879Z,18.50
2022-08-18T16:44:16.216Z,19.12
2022-08-18T16:49:18.965Z,18.02
2022-08-18T16:54:19.854Z,19.17
2022-08-18T16:59:40.800Z,17.77
2022-08-18T17:04:41.697Z,17.35
2022-08-18T17:09:42.801Z,17.83
2022-08-18T17:14:43.807Z,16.77
2022-08-18T17:19:46.497Z,16.90
2022-08-18T17:24:49.704Z,17.42
2022-08-18T17:33:29.154Z,16.90
2022-08-18T17:38:39.456Z,16.92
2022-08-18T17:48:47.138Z,17.08
2022-08-18T17:53:48.501Z,19.65
2022-08-18T17:58:57.955Z,18.40
2022-08-18T18:03:59.592Z,17.48
2022-08-18T18:09:28.410Z,17.67
2022-08-18T18:14:38.902Z,19.42
2022-08-18T18:19:46.021Z,19.27
2022-08-18T18:24:59.769Z,18.60
2022-08-18T18:30:07.460Z,19.70
2022-08-18T18:35:37.745Z,19.52
2022-08-18T18:44:28.100Z,19.67
2022-08-18T18:50:39.775Z,18.02
2022-08-18T18:56:56.823Z,17.48
2022-08-18T19:05:39.097Z,18.35
2022-08-18T19:10:58.650Z,19.87
2022-08-18T19:16:24.237Z,19.83
2022-08-18T19:22:03.330Z,21.08
2022-08-18T19:27:16.668Z,19.80
2022-08-18T19:32:32.977Z,22.33
2022-08-18T19:38:08.859Z,21.23
2022-08-18T19:43:40.670Z,22.65
2022-08-18T19:49:03.788Z,21.85
2022-08-18T20:01:03.696Z,22.00
2022-08-18T20:09:48.986Z,22.35
2022-08-18T20:20:14.141Z,21.87
2022-08-18T20:26:00.925Z,23.05
2022-08-18T20:31:15.428Z,21.67
2022-08-18T20:36:35.830Z,20.60
2022-08-18T20:41:49.579Z,19.55
2022-08-18T20:47:12.059Z,19.42
2022-08-18T20:52:38.686Z,19.08
2022-08-18T20:57:40.067Z,18.70
2022-08-18T21:02:53.292Z,17.83
2022-08-18T21:08:19.407Z,17.98
2022-08-18T21:14:30.033Z,17.20
2022-08-18T21:19:40.207Z,17.00
2022-08-18T21:24:46.095Z,16.87
2022-08-18T21:29:49.543Z,16.40
2022-08-18T21:34:50.828Z,17.52
2022-08-18T21:39:58.563Z,16.92
2022-08-18T21:45:00.790Z,19.05
2022-08-18T21:50:14.079Z,18.80
2022-08-18T22:01:14.113Z,17.45
2022-08-18T22:06:39.889Z,17.52
2022-08-18T22:12:01.297Z,18.02
2022-08-18T22:17:57.123Z,18.10
2022-08-18T22:23:31.047Z,18.50
2022-08-18T22:28:32.709Z,17.73
2022-08-18T22:33:33.633Z,18.33
2022-08-18T22:38:34.821Z,18.02
2022-08-18T22:43:36.313Z,18.87
2022-08-18T22:48:37.759Z,21.27
2022-08-18T22:53:38.694Z,18.27
2022-08-18T22:58:41.764Z,19.55
2022-08-18T23:03:44.003Z,19.05
2022-08-18T23:08:54.363Z,18.25
2022-08-18T23:14:00.095Z,19.23
2022-08-18T23:19:02.202Z,19.55
2022-08-18T23:24:04.890Z,18.90
2022-08-18T23:29:09.903Z,18.05
2022-08-18T23:34:12.882Z,19.52
2022-08-18T23:39:13.734Z,19.90
2022-08-18T23:44:15.822Z,21.48
2022-08-18T23:49:16.780Z,22.23
2022-08-18T23:54:21.061Z,19.10
2022-08-18T23:59:23.501Z,19.52
